Wilfred M Cohen — VCNK — position and weather

sailwx.info

Track history (hours):
 
Tides and Currents Weather Stations Pressure Air Temp Water Temp Dewpoint Dewpoint Depression Visibility Wind Speed Wind Dir Waves Ship Positions

Wilfred M Cohen

Last reported at 2018-Jan-10 08:02 UTC. Time now 2018-Feb-20 01:36 UTC.
Position N 45°49' W 084°43'.
Warning: this ship's position is 40 days out of date.

MMSI: 314955479.

Date/timePositionNaut miles runAvg speedWind from/ knotsBaromVisibWave heightAir tempDewpointWater temp
2018-Jan-10 08:02N 45°49' W 084°43'010.5
2018-Jan-10 08:00N 45°49' W 084°43'3 3.8
2018-Jan-10 07:20N 45°49' W 084°46'1 3.3
2018-Jan-10 07:00N 45°49' W 084°48'0 0.9
2018-Jan-10 06:30N 45°49' W 084°48'0 0.4
2018-Jan-10 05:51N 45°49' W 084°48'0 1.1
2018-Jan-10 05:26N 45°49' W 084°49'4 5.4
2018-Jan-10 04:39N 45°50' W 084°55'1 5.4
2018-Jan-10 04:30N 45°50' W 084°54'2 3.5
2018-Jan-10 04:00N 45°50' W 084°56'3 6.5
2018-Jan-10 03:29N 45°51' W 085°01'3 7.0
2018-Jan-10 03:00N 45°51' W 085°06'6 7.9
2018-Jan-10 02:18N 45°52' W 085°13'3 7.2
2018-Jan-10 01:50N 45°53' W 085°18'1 3.1
2018-Jan-10 01:30N 45°53' W 085°17'2 3.4
2018-Jan-10 00:58N 45°52' W 085°15'4 8.6
2018-Jan-10 00:30N 45°51' W 085°09'611.1
2018-Jan-10 00:00N 45°51' W 085°01'5 9.0
2018-Jan-09 23:30N 45°50' W 084°55'4 7.4
2018-Jan-09 23:00N 45°49' W 084°49'4 8.9
2018-Jan-09 22:30N 45°49' W 084°43'6 9.8
2018-Jan-09 21:54N 45°51' W 084°35'  
Track history (hours):
 
Tides and Currents Weather Stations Pressure Air Temp Water Temp Dewpoint Dewpoint Depression Visibility Wind Speed Wind Dir Waves Ship Positions

Wilfred M Cohen

Last reported at 2018-Jan-10 08:02 UTC. Time now 2018-Feb-20 01:36 UTC.
Position N 45°49' W 084°43'.
Warning: this ship's position is 40 days out of date.

MMSI: 314955479.

Date/timePositionNaut miles runAvg speedWind from/ knotsBaromVisibWave heightAir tempDewpointWater temp
2018-Jan-10 08:02N 45°49' W 084°43'010.5
2018-Jan-10 08:00N 45°49' W 084°43'3 3.8
2018-Jan-10 07:20N 45°49' W 084°46'1 3.3
2018-Jan-10 07:00N 45°49' W 084°48'0 0.9
2018-Jan-10 06:30N 45°49' W 084°48'0 0.4
2018-Jan-10 05:51N 45°49' W 084°48'0 1.1
2018-Jan-10 05:26N 45°49' W 084°49'4 5.4
2018-Jan-10 04:39N 45°50' W 084°55'1 5.4
2018-Jan-10 04:30N 45°50' W 084°54'2 3.5
2018-Jan-10 04:00N 45°50' W 084°56'3 6.5
2018-Jan-10 03:29N 45°51' W 085°01'3 7.0
2018-Jan-10 03:00N 45°51' W 085°06'6 7.9
2018-Jan-10 02:18N 45°52' W 085°13'3 7.2
2018-Jan-10 01:50N 45°53' W 085°18'1 3.1
2018-Jan-10 01:30N 45°53' W 085°17'2 3.4
2018-Jan-10 00:58N 45°52' W 085°15'4 8.6
2018-Jan-10 00:30N 45°51' W 085°09'611.1
2018-Jan-10 00:00N 45°51' W 085°01'5 9.0
2018-Jan-09 23:30N 45°50' W 084°55'4 7.4
2018-Jan-09 23:00N 45°49' W 084°49'4 8.9
2018-Jan-09 22:30N 45°49' W 084°43'6 9.8
2018-Jan-09 21:54N 45°51' W 084°35'  

Dump ship's entire track history